createdAt,value
2022-10-22T02:47:02.461Z,99.99
2022-10-22T02:48:03.826Z,99.99
2022-10-22T02:49:04.205Z,99.99
2022-10-22T02:50:07.871Z,99.99
2022-10-22T02:51:04.919Z,99.99
2022-10-22T02:52:05.272Z,99.99
2022-10-22T02:53:05.660Z,99.99
2022-10-22T02:54:06.009Z,99.99
2022-10-22T02:55:06.450Z,99.99
2022-10-22T02:56:06.717Z,99.99
2022-10-22T02:57:07.201Z,99.99
2022-10-22T02:58:07.429Z,99.99
2022-10-22T02:59:07.768Z,99.99
2022-10-22T03:00:08.158Z,99.99
2022-10-22T03:01:10.355Z,99.99
2022-10-22T03:02:08.855Z,99.99
2022-10-22T03:03:09.215Z,99.99
2022-10-22T03:04:09.591Z,99.99
2022-10-22T03:05:09.942Z,99.99
2022-10-22T03:06:10.285Z,99.99
2022-10-22T03:07:10.648Z,99.99
2022-10-22T03:08:11.006Z,99.99
2022-10-22T03:09:11.363Z,99.99
2022-10-22T03:10:11.724Z,99.99
2022-10-22T03:11:12.070Z,99.99
2022-10-22T03:12:12.426Z,99.99
2022-10-22T03:13:12.780Z,99.99
2022-10-22T03:14:13.115Z,99.99
2022-10-22T03:15:13.526Z,99.99
2022-10-22T03:16:13.863Z,99.99
2022-10-22T03:17:14.206Z,99.99
2022-10-22T03:18:14.557Z,99.99
2022-10-22T03:19:14.932Z,99.99
2022-10-22T03:20:15.266Z,99.99
2022-10-22T03:21:15.686Z,99.99
2022-10-22T03:22:15.974Z,99.99
2022-10-22T03:23:16.318Z,99.99
2022-10-22T03:24:16.673Z,99.99
2022-10-22T03:25:17.041Z,99.99
2022-10-22T03:26:17.376Z,99.99
2022-10-22T03:27:17.774Z,99.99
2022-10-22T03:28:18.109Z,99.99
2022-10-22T03:29:18.470Z,99.99
2022-10-22T03:30:18.863Z,99.99
2022-10-22T03:31:19.171Z,99.99
2022-10-22T03:32:19.517Z,99.99
2022-10-22T03:33:19.878Z,99.99
2022-10-22T03:34:20.234Z,99.99
2022-10-22T03:35:20.627Z,99.99
2022-10-22T03:36:20.979Z,99.99
2022-10-22T03:37:21.317Z,99.99
2022-10-22T03:38:21.667Z,99.99
2022-10-22T03:39:22.024Z,99.99
2022-10-22T03:40:22.969Z,99.99
2022-10-22T03:41:22.729Z,99.99
2022-10-22T03:42:23.112Z,99.99
2022-10-22T03:43:23.432Z,99.99
2022-10-22T03:44:23.791Z,99.99
2022-10-22T03:45:24.190Z,99.99
2022-10-22T03:46:24.553Z,99.99
2022-10-22T03:47:24.863Z,99.99
2022-10-22T03:48:25.219Z,99.99
2022-10-22T03:49:25.600Z,99.99
2022-10-22T03:50:25.995Z,99.99
2022-10-22T03:51:26.348Z,99.99
2022-10-22T03:52:26.703Z,99.99
2022-10-22T03:53:27.066Z,99.99
2022-10-22T03:54:27.486Z,99.99
2022-10-22T03:55:27.846Z,99.99
2022-10-22T03:56:28.191Z,99.99
2022-10-22T03:57:28.543Z,99.99
2022-10-22T03:58:28.896Z,99.99
2022-10-22T03:59:29.271Z,99.99
2022-10-22T04:00:29.631Z,99.99
2022-10-22T04:01:30.090Z,99.99
2022-10-22T04:02:30.362Z,99.99
2022-10-22T04:03:30.732Z,99.99
2022-10-22T04:04:31.085Z,99.99
2022-10-22T04:05:31.472Z,99.99
2022-10-22T04:06:31.783Z,99.99
2022-10-22T04:07:32.138Z,99.99
2022-10-22T04:08:32.586Z,99.99
2022-10-22T04:09:32.860Z,99.99
2022-10-22T04:10:33.233Z,99.99
2022-10-22T04:11:33.566Z,99.99
2022-10-22T04:12:33.920Z,99.99
2022-10-22T04:13:34.289Z,99.99
2022-10-22T04:14:34.634Z,99.99
2022-10-22T04:15:35.084Z,99.99
2022-10-22T04:16:35.368Z,99.99
2022-10-22T04:17:35.712Z,99.99
2022-10-22T04:18:36.077Z,99.99
2022-10-22T04:19:36.453Z,99.99
2022-10-22T04:20:36.832Z,99.99
2022-10-22T04:21:37.161Z,99.99
2022-10-22T04:22:37.494Z,99.99
2022-10-22T04:23:37.873Z,99.99
2022-10-22T04:24:38.337Z,99.99
2022-10-22T04:25:38.582Z,99.99
2022-10-22T04:26:38.932Z,99.99
2022-10-22T04:27:39.691Z,99.99
2022-10-22T04:28:39.653Z,99.99
2022-10-22T04:29:40.003Z,99.99
2022-10-22T04:30:40.381Z,99.99
2022-10-22T04:31:40.758Z,99.99
2022-10-22T04:32:41.150Z,99.99
2022-10-22T04:33:41.476Z,99.99
2022-10-22T04:34:41.831Z,99.99
2022-10-22T04:35:42.196Z,99.99
2022-10-22T04:36:42.537Z,99.99
2022-10-22T04:37:43.186Z,99.99
2022-10-22T04:38:43.250Z,99.99
2022-10-22T04:39:43.602Z,99.99
2022-10-22T04:40:43.996Z,99.99
2022-10-22T04:41:44.307Z,99.99
2022-10-22T04:42:44.688Z,99.99
2022-10-22T04:43:45.031Z,99.99
2022-10-22T04:44:45.380Z,99.99
2022-10-22T04:45:45.760Z,99.99
2022-10-22T04:46:46.126Z,99.99
2022-10-22T04:47:46.468Z,99.99
2022-10-22T04:48:46.810Z,99.99
2022-10-22T04:49:47.162Z,99.99
2022-10-22T04:50:47.528Z,99.99
2022-10-22T04:51:47.915Z,99.99
2022-10-22T04:52:48.225Z,99.99
2022-10-22T04:53:48.586Z,99.99
2022-10-22T04:54:48.943Z,99.99
2022-10-22T04:55:49.382Z,99.99
2022-10-22T04:56:49.668Z,99.99
2022-10-22T04:57:50.019Z,99.99
2022-10-22T04:58:50.371Z,99.99
2022-10-22T04:59:50.723Z,99.99
2022-10-22T05:00:51.122Z,99.99
2022-10-22T05:01:51.445Z,99.99
2022-10-22T05:02:51.817Z,99.99
2022-10-22T05:03:52.166Z,99.99
2022-10-22T05:04:52.527Z,99.99
2022-10-22T05:05:52.961Z,99.99
2022-10-22T05:06:53.235Z,99.99
2022-10-22T05:07:53.599Z,99.99
2022-10-22T05:08:53.999Z,99.99
2022-10-22T05:09:54.306Z,99.99
2022-10-22T05:10:54.668Z,99.99
2022-10-22T05:11:55.021Z,99.99
2022-10-22T05:12:55.382Z,99.99
2022-10-22T05:13:55.720Z,99.99
2022-10-22T05:14:56.099Z,99.99
2022-10-22T05:15:56.466Z,99.99
2022-10-22T05:16:56.815Z,99.99
2022-10-22T05:17:57.173Z,99.99
2022-10-22T05:18:57.524Z,99.99
2022-10-22T05:19:57.910Z,99.99
2022-10-22T05:20:58.250Z,99.99
2022-10-22T05:21:58.645Z,99.99
2022-10-22T05:22:58.980Z,99.99
2022-10-22T05:23:59.330Z,99.99
2022-10-22T05:24:59.699Z,99.99
2022-10-22T05:26:00.095Z,99.99
2022-10-22T05:27:00.454Z,99.99
2022-10-22T05:28:00.824Z,99.99
2022-10-22T05:29:00.958Z,99.99
2022-10-22T05:30:01.130Z,99.99
2022-10-22T05:31:01.322Z,99.99
2022-10-22T05:32:01.465Z,99.99
2022-10-22T05:33:01.749Z,99.99
2022-10-22T05:34:01.922Z,99.99
2022-10-22T05:35:02.095Z,99.99
2022-10-22T05:36:02.273Z,99.99
2022-10-22T05:37:02.491Z,99.99
2022-10-22T05:38:02.719Z,99.99
2022-10-22T05:39:02.889Z,99.99
2022-10-22T05:40:18.928Z,99.99
2022-10-22T05:41:03.483Z,99.99
2022-10-22T05:42:03.639Z,99.99
2022-10-22T05:43:03.818Z,99.99
2022-10-22T05:44:04.090Z,99.99
2022-10-22T05:45:04.303Z,99.99
2022-10-22T05:46:04.469Z,99.99
2022-10-22T05:47:04.786Z,99.99
2022-10-22T05:48:05.055Z,99.99
2022-10-22T05:49:05.391Z,99.99
2022-10-22T05:50:05.618Z,99.99
2022-10-22T05:51:05.800Z,99.99
2022-10-22T05:52:06.081Z,99.99
2022-10-22T05:53:06.267Z,99.99
2022-10-22T05:54:06.576Z,99.99
2022-10-22T05:55:06.765Z,99.99
2022-10-22T05:56:07.064Z,99.99
2022-10-22T05:57:07.328Z,99.99
2022-10-22T05:58:07.479Z,99.99
2022-10-22T05:59:07.820Z,99.99
2022-10-22T06:00:10.562Z,99.99
2022-10-22T06:01:08.427Z,99.99
2022-10-22T06:02:08.709Z,99.99
2022-10-22T06:03:08.849Z,99.99
2022-10-22T06:04:09.015Z,99.99
2022-10-22T06:05:09.418Z,99.99
2022-10-22T06:06:09.621Z,99.99
2022-10-22T06:07:09.806Z,99.99
2022-10-22T06:08:10.086Z,99.99
2022-10-22T06:09:10.365Z,99.99
2022-10-22T06:10:10.462Z,99.99
2022-10-22T06:11:10.661Z,99.99
2022-10-22T06:12:10.934Z,99.99
2022-10-22T06:13:11.100Z,99.99
2022-10-22T06:14:11.298Z,99.99
2022-10-22T06:15:11.479Z,99.99
2022-10-22T06:16:11.649Z,99.99
2022-10-22T06:17:11.813Z,99.99
2022-10-22T06:18:11.991Z,99.99
2022-10-22T06:19:12.145Z,99.99
2022-10-22T06:20:12.330Z,99.99
2022-10-22T06:21:12.558Z,99.99
2022-10-22T06:22:12.696Z,99.99
2022-10-22T06:23:12.856Z,99.99
2022-10-22T06:24:13.030Z,99.99
2022-10-22T06:25:13.205Z,99.99
2022-10-22T06:26:13.396Z,99.99
2022-10-22T06:27:13.572Z,99.99
2022-10-22T06:28:13.767Z,99.99
2022-10-22T06:29:13.902Z,99.99
2022-10-22T06:30:14.097Z,99.99
2022-10-22T06:31:14.269Z,99.99
2022-10-22T06:32:14.598Z,99.99
2022-10-22T06:33:14.735Z,99.99
2022-10-22T06:34:14.921Z,99.99
2022-10-22T06:35:15.111Z,99.99
2022-10-22T06:36:15.308Z,99.99
2022-10-22T06:37:15.460Z,99.99
2022-10-22T06:38:15.749Z,99.99
2022-10-22T06:39:15.975Z,99.99
2022-10-22T06:40:16.129Z,99.99
2022-10-22T06:41:16.333Z,99.99
2022-10-22T06:42:17.367Z,99.99
2022-10-22T06:43:16.789Z,99.99
2022-10-22T06:44:17.006Z,99.99
2022-10-22T06:45:17.150Z,99.99
2022-10-22T06:46:19.861Z,99.99
2022-10-22T06:47:17.532Z,99.99
2022-10-22T06:48:17.689Z,99.99
2022-10-22T06:49:17.884Z,99.99
2022-10-22T06:50:18.048Z,99.99
2022-10-22T06:51:18.274Z,99.99
2022-10-22T06:52:18.431Z,99.99
2022-10-22T06:53:18.631Z,99.99
2022-10-22T06:54:18.817Z,99.99
2022-10-22T06:55:19.002Z,99.99
2022-10-22T06:56:19.253Z,99.99
2022-10-22T06:57:19.385Z,99.99
2022-10-22T06:58:19.559Z,99.99
2022-10-22T06:59:19.760Z,99.99
2022-10-22T07:00:20.012Z,99.99
2022-10-22T07:01:20.293Z,99.99
2022-10-22T07:02:20.298Z,99.99
2022-10-22T07:03:20.532Z,99.99
2022-10-22T07:04:20.692Z,99.99
2022-10-22T07:05:20.881Z,99.99
2022-10-22T07:06:21.081Z,99.99
2022-10-22T07:07:21.277Z,99.99
2022-10-22T07:08:21.446Z,99.99
2022-10-22T07:09:21.652Z,99.99
2022-10-22T07:10:22.272Z,99.99
2022-10-22T07:11:22.214Z,99.99
2022-10-22T07:12:22.224Z,99.99
2022-10-22T07:13:22.453Z,99.99
2022-10-22T07:14:22.596Z,99.99
2022-10-22T07:15:22.789Z,99.99
2022-10-22T07:16:25.650Z,99.99
2022-10-22T07:17:23.215Z,99.99
2022-10-22T07:18:23.475Z,99.99
2022-10-22T07:19:23.581Z,99.99
2022-10-22T07:20:23.818Z,99.99
2022-10-22T07:21:23.982Z,99.99
2022-10-22T07:22:24.150Z,99.99
2022-10-22T07:23:24.348Z,99.99
2022-10-22T07:24:24.557Z,99.99
2022-10-22T07:25:24.751Z,99.99
2022-10-22T07:26:24.972Z,99.99
2022-10-22T07:27:25.117Z,99.99
2022-10-22T07:28:25.311Z,99.99
2022-10-22T07:29:25.511Z,99.99
2022-10-22T07:30:25.704Z,99.99
2022-10-22T07:31:25.948Z,99.99
2022-10-22T07:32:26.088Z,99.99
2022-10-22T07:33:26.297Z,99.99
2022-10-22T07:34:26.507Z,99.99
2022-10-22T07:35:26.711Z,99.99
2022-10-22T07:36:26.888Z,99.99
2022-10-22T07:37:27.062Z,99.99
2022-10-22T07:38:27.263Z,99.99
2022-10-22T07:39:27.476Z,99.99
2022-10-22T07:40:27.647Z,99.99
2022-10-22T07:41:27.853Z,99.99
2022-10-22T07:43:28.214Z,99.99
2022-10-22T07:44:28.439Z,99.99
2022-10-22T07:45:28.597Z,99.99
2022-10-22T07:46:28.811Z,99.99
2022-10-22T07:47:28.969Z,99.99
2022-10-22T07:48:29.181Z,99.99
2022-10-22T07:49:29.340Z,99.99
2022-10-22T07:50:29.541Z,99.99
2022-10-22T07:51:29.769Z,99.99
2022-10-22T07:52:29.934Z,99.99
2022-10-22T07:53:30.130Z,99.99
2022-10-22T07:54:30.342Z,99.99
2022-10-22T07:55:30.518Z,99.99
2022-10-22T07:56:30.747Z,99.99
2022-10-22T07:57:30.856Z,99.99
2022-10-22T07:58:31.052Z,99.99
2022-10-22T07:59:31.246Z,99.99
2022-10-22T08:00:31.474Z,99.99
2022-10-22T08:01:31.734Z,99.99
2022-10-22T08:02:31.859Z,99.99
2022-10-22T08:03:32.051Z,99.99
2022-10-22T08:04:32.216Z,99.99
2022-10-22T08:05:32.415Z,99.99
2022-10-22T08:06:32.616Z,99.99
2022-10-22T08:07:32.810Z,99.99
2022-10-22T08:08:33.021Z,99.99
2022-10-22T08:09:33.165Z,99.99
2022-10-22T08:10:33.365Z,99.99
2022-10-22T08:11:33.601Z,99.99
2022-10-22T08:12:33.763Z,99.99
2022-10-22T08:13:33.968Z,99.99
2022-10-22T08:14:34.135Z,99.99
2022-10-22T08:15:34.411Z,99.99
2022-10-22T08:16:34.537Z,99.99
2022-10-22T08:17:34.701Z,99.99
2022-10-22T08:18:34.901Z,99.99
2022-10-22T08:19:35.093Z,99.99
2022-10-22T08:20:35.247Z,99.99
2022-10-22T08:21:35.464Z,99.99
2022-10-22T08:22:35.670Z,99.99
2022-10-22T08:23:35.805Z,99.99
2022-10-22T08:24:36.033Z,99.99
2022-10-22T08:25:36.217Z,99.99
2022-10-22T08:26:36.440Z,99.99
2022-10-22T08:27:36.598Z,99.99
2022-10-22T08:28:36.759Z,99.99
2022-10-22T08:29:36.982Z,99.99
2022-10-22T08:30:37.158Z,99.99
2022-10-22T08:31:37.355Z,99.99
2022-10-22T08:32:37.518Z,99.99
2022-10-22T08:33:37.727Z,99.99
2022-10-22T08:34:37.948Z,99.99
2022-10-22T08:35:38.121Z,99.99
2022-10-22T08:36:38.330Z,99.99
2022-10-22T08:37:38.810Z,99.99
2022-10-22T08:38:38.685Z,99.99
2022-10-22T08:39:38.881Z,99.99
2022-10-22T08:40:39.162Z,99.99
2022-10-22T08:41:39.288Z,99.99
2022-10-22T08:42:40.022Z,99.99
2022-10-22T08:43:39.651Z,99.99
2022-10-22T08:44:39.849Z,99.99
2022-10-22T08:45:40.047Z,99.99
2022-10-22T08:46:40.302Z,99.99
2022-10-22T08:47:40.448Z,99.99
2022-10-22T08:48:40.643Z,99.99
2022-10-22T08:49:42.157Z,99.99
2022-10-22T08:50:41.071Z,99.99
2022-10-22T08:51:41.226Z,99.99
2022-10-22T08:52:41.633Z,99.70
2022-10-22T08:53:41.596Z,99.80
2022-10-22T08:54:41.785Z,99.66
2022-10-22T08:55:42.009Z,99.05
2022-10-22T08:56:42.250Z,98.85
2022-10-22T08:57:42.371Z,99.25
2022-10-22T08:58:42.552Z,98.74
2022-10-22T08:59:42.732Z,98.29
2022-10-22T09:00:42.918Z,98.60
2022-10-22T09:01:43.146Z,98.50
2022-10-22T09:02:43.805Z,98.09
2022-10-22T09:03:43.511Z,98.09
2022-10-22T09:04:43.739Z,97.99
2022-10-22T09:05:43.949Z,98.09
2022-10-22T09:06:44.101Z,97.89
2022-10-22T09:07:44.929Z,97.89
2022-10-22T09:08:44.545Z,97.89
2022-10-22T09:09:44.658Z,97.54
2022-10-22T09:10:44.854Z,97.44
2022-10-22T09:11:45.083Z,97.74
2022-10-22T09:12:45.231Z,97.54
2022-10-22T09:13:45.445Z,97.34
2022-10-22T09:14:45.639Z,96.89
2022-10-22T09:15:47.367Z,96.98
2022-10-22T09:16:46.058Z,96.89
2022-10-22T09:17:46.250Z,96.89
2022-10-22T09:18:46.433Z,96.08
2022-10-22T09:19:46.645Z,96.18
2022-10-22T09:20:46.842Z,96.38
2022-10-22T09:21:47.073Z,95.78
2022-10-22T09:22:47.214Z,96.28
2022-10-22T09:23:47.418Z,95.87
2022-10-22T09:24:47.594Z,95.67
2022-10-22T09:25:47.799Z,95.78
2022-10-22T09:26:48.005Z,95.87
2022-10-22T09:27:48.171Z,96.18
2022-10-22T09:28:48.421Z,95.93
2022-10-22T09:29:48.585Z,95.93
2022-10-22T09:30:48.845Z,95.93
2022-10-22T09:31:49.026Z,95.22
2022-10-22T09:32:49.151Z,94.92
2022-10-22T09:33:49.333Z,94.82
2022-10-22T09:34:49.516Z,94.92
2022-10-22T09:35:49.685Z,95.02
2022-10-22T09:36:49.887Z,94.98
2022-10-22T09:37:50.081Z,94.67
2022-10-22T09:38:50.239Z,94.78
2022-10-22T09:39:50.438Z,94.67
2022-10-22T09:40:50.641Z,94.23
2022-10-22T09:41:50.855Z,93.32
2022-10-22T09:42:51.048Z,93.52
2022-10-22T09:43:51.250Z,93.21
2022-10-22T09:44:51.466Z,93.17
2022-10-22T09:45:51.670Z,92.77
2022-10-22T09:46:51.841Z,92.86
2022-10-22T09:48:01.823Z,92.97
2022-10-22T09:48:52.200Z,92.66
2022-10-22T09:49:52.391Z,93.07
2022-10-22T09:50:52.616Z,92.62
2022-10-22T09:51:52.830Z,92.12
2022-10-22T09:52:52.980Z,91.27
2022-10-22T09:53:53.162Z,90.82
2022-10-22T09:54:53.366Z,89.11
2022-10-22T09:55:53.583Z,88.50
2022-10-22T09:56:53.787Z,88.16
2022-10-22T09:57:53.892Z,88.66
2022-10-22T09:58:54.097Z,87.31
2022-10-22T09:59:54.296Z,86.66
2022-10-22T10:00:54.515Z,86.02
2022-10-22T10:01:54.747Z,85.48
2022-10-22T10:02:54.911Z,85.17
2022-10-22T10:03:55.084Z,84.51
2022-10-22T10:04:55.436Z,85.66
2022-10-22T10:05:55.447Z,85.86
2022-10-22T10:06:55.706Z,85.86
2022-10-22T10:07:55.858Z,85.42
2022-10-22T10:08:56.082Z,84.51
2022-10-22T10:09:56.235Z,85.62
2022-10-22T10:10:56.520Z,84.91
2022-10-22T10:11:56.597Z,84.11
2022-10-22T10:12:56.767Z,85.25
2022-10-22T10:13:57.014Z,85.60
2022-10-22T10:14:57.127Z,86.61
2022-10-22T10:15:57.343Z,86.30
2022-10-22T10:16:57.551Z,86.10
2022-10-22T10:17:57.724Z,86.55
2022-10-22T10:18:57.936Z,87.29
2022-10-22T10:20:01.460Z,87.40
2022-10-22T10:20:58.329Z,87.45
2022-10-22T10:21:58.610Z,86.61
2022-10-22T10:22:58.720Z,86.57
2022-10-22T10:23:58.925Z,84.71
2022-10-22T10:24:59.105Z,86.30
2022-10-22T10:25:59.298Z,86.51
2022-10-22T10:26:59.475Z,86.71
2022-10-22T10:27:59.646Z,86.71
2022-10-22T10:28:59.840Z,86.95
2022-10-22T10:30:00.040Z,87.45
2022-10-22T10:31:00.335Z,88.10
2022-10-22T10:32:00.428Z,88.10
2022-10-22T10:33:00.594Z,88.10
2022-10-22T10:34:00.812Z,88.50
2022-10-22T10:35:00.973Z,88.10
2022-10-22T10:36:01.158Z,87.65
2022-10-22T10:37:01.380Z,86.81
2022-10-22T10:38:01.641Z,86.57
2022-10-22T12:20:52.177Z,86.77
2022-10-22T12:21:52.963Z,86.36
2022-10-22T12:22:53.180Z,86.57
2022-10-22T12:23:53.363Z,86.81
2022-10-22T12:24:53.549Z,86.30
2022-10-22T12:25:53.719Z,86.46
2022-10-22T12:26:53.907Z,86.46
2022-10-22T12:27:54.119Z,86.66
2022-10-22T12:28:54.272Z,86.66
2022-10-22T12:29:54.456Z,86.57
2022-10-22T12:30:54.643Z,86.66
2022-10-22T12:31:54.816Z,86.77
2022-10-22T12:32:55.023Z,86.72
2022-10-22T12:33:55.211Z,86.72
2022-10-22T12:34:55.407Z,86.46
2022-10-22T12:35:55.600Z,86.63
2022-10-22T12:36:55.791Z,86.57
2022-10-22T12:37:55.998Z,86.63
2022-10-22T12:38:56.190Z,86.52
2022-10-22T12:39:56.381Z,86.72
2022-10-22T12:40:56.571Z,86.52
2022-10-22T12:41:56.769Z,85.96
2022-10-22T12:42:57.025Z,86.22
2022-10-22T12:43:57.149Z,85.36
2022-10-22T12:44:57.341Z,85.11
2022-10-22T12:45:57.568Z,84.95
2022-10-22T12:46:57.723Z,84.71
2022-10-22T12:47:57.929Z,84.31
2022-10-22T12:48:58.123Z,83.81
2022-10-22T12:49:58.309Z,84.25
2022-10-22T12:50:58.496Z,84.01
2022-10-22T12:51:58.697Z,84.11
2022-10-22T12:52:58.884Z,83.91
2022-10-22T12:53:59.051Z,83.81
2022-10-22T12:54:59.242Z,84.11
2022-10-22T12:55:59.446Z,84.41
2022-10-22T12:56:59.647Z,84.41
2022-10-22T12:57:59.859Z,84.71
2022-10-22T12:59:00.032Z,84.17
2022-10-22T13:01:00.412Z,83.51
2022-10-22T13:02:00.590Z,83.06
2022-10-22T13:03:00.809Z,83.37
2022-10-22T13:04:00.987Z,83.26
2022-10-22T13:05:01.189Z,82.86
2022-10-22T13:06:01.386Z,83.06
2022-10-22T13:07:01.591Z,83.26
2022-10-22T13:08:01.810Z,83.17
2022-10-22T13:09:02.019Z,82.86
2022-10-22T13:10:02.139Z,83.17
2022-10-22T13:11:02.330Z,83.61
2022-10-22T13:12:02.527Z,83.61
2022-10-22T13:13:02.740Z,84.41
2022-10-22T13:14:02.912Z,84.51
2022-10-22T13:15:03.114Z,84.55
2022-10-22T13:16:03.304Z,84.15
2022-10-22T13:17:03.484Z,83.81
2022-10-22T13:18:03.698Z,83.67
2022-10-22T13:19:03.850Z,83.67
2022-10-22T13:20:04.080Z,82.82
2022-10-22T13:21:04.245Z,82.28
2022-10-22T13:22:04.441Z,81.58
2022-10-22T13:23:04.651Z,83.03
2022-10-22T13:24:04.801Z,83.76
2022-10-22T13:25:05.001Z,83.37
2022-10-22T13:26:05.205Z,83.67
2022-10-22T13:27:05.397Z,83.76
2022-10-22T13:28:05.606Z,83.97
2022-10-22T13:29:05.765Z,84.17
2022-10-22T13:30:05.960Z,84.47
2022-10-22T13:31:06.165Z,83.83
2022-10-22T13:32:06.365Z,83.03
2022-10-22T13:33:06.680Z,82.42
2022-10-22T13:34:09.957Z,82.72
2022-10-22T13:35:06.925Z,81.76
2022-10-22T13:36:07.077Z,81.46
2022-10-22T13:37:07.294Z,80.71
2022-10-22T13:38:07.508Z,81.15
2022-10-22T13:39:07.665Z,81.35
2022-10-22T13:40:11.000Z,80.91
2022-10-22T13:41:08.068Z,81.05
2022-10-22T13:42:08.263Z,80.95
2022-10-22T13:43:08.491Z,81.05
2022-10-22T13:44:08.669Z,81.12
2022-10-22T13:45:08.887Z,80.41
2022-10-22T13:46:09.110Z,79.91
2022-10-22T13:47:09.314Z,78.56
2022-10-22T13:48:09.515Z,78.36
2022-10-22T13:49:09.710Z,78.06
2022-10-22T13:50:09.882Z,78.06
2022-10-22T13:51:10.100Z,78.56
2022-10-22T13:52:10.300Z,78.86
2022-10-22T13:53:10.516Z,78.90
2022-10-22T13:54:10.676Z,79.64
2022-10-22T13:55:10.864Z,80.15
2022-10-22T13:56:11.056Z,80.25
2022-10-22T13:57:11.263Z,80.65
2022-10-22T13:58:11.475Z,80.89
2022-10-22T13:59:11.587Z,80.15
2022-10-22T14:00:11.781Z,79.91
2022-10-22T14:01:12.057Z,79.94
2022-10-22T14:02:12.147Z,80.99
2022-10-22T14:03:12.386Z,81.39
2022-10-22T14:04:12.536Z,81.39
2022-10-22T14:05:12.748Z,80.69
2022-10-22T14:06:12.897Z,81.53
2022-10-22T14:07:13.090Z,81.70
2022-10-22T14:08:13.294Z,81.79
2022-10-22T14:09:13.577Z,80.01
2022-10-22T14:10:13.658Z,79.71
2022-10-22T14:11:13.851Z,80.35
2022-10-22T14:12:14.044Z,81.39
2022-10-22T14:13:14.256Z,82.24
2022-10-22T14:14:14.514Z,81.90
2022-10-22T14:15:14.610Z,82.24
2022-10-22T14:16:14.761Z,82.68
2022-10-22T14:17:14.962Z,83.08
2022-10-22T14:18:15.134Z,83.18
2022-10-22T14:19:15.289Z,83.39
2022-10-22T14:20:15.486Z,83.18
2022-10-22T14:21:15.679Z,83.62
2022-10-22T14:22:15.870Z,83.99
2022-10-22T14:24:16.236Z,82.78
2022-10-22T14:25:16.427Z,83.14
2022-10-22T14:26:16.621Z,83.04
2022-10-22T14:27:16.809Z,82.54
2022-10-22T14:28:17.007Z,82.44
2022-10-22T14:29:17.206Z,82.54
2022-10-22T14:30:17.370Z,83.28
2022-10-22T14:31:17.569Z,83.48
2022-10-22T14:32:17.760Z,83.39
2022-10-22T14:33:17.983Z,83.79
2022-10-22T14:34:18.187Z,83.89
2022-10-22T14:35:18.344Z,84.19
2022-10-22T14:36:18.537Z,84.19
2022-10-22T14:37:18.736Z,84.33
2022-10-22T14:38:18.949Z,84.49
2022-10-22T14:39:19.120Z,84.29
2022-10-22T14:40:19.302Z,84.63
2022-10-22T14:41:19.493Z,84.33
2022-10-22T14:42:19.673Z,84.43
2022-10-22T14:43:19.885Z,84.53
2022-10-22T14:44:20.041Z,84.43
2022-10-22T14:45:20.236Z,84.43
2022-10-22T14:46:20.433Z,84.63
2022-10-22T14:47:20.658Z,85.14
2022-10-22T14:48:20.868Z,85.38
2022-10-22T14:49:21.024Z,85.58
2022-10-22T14:50:21.207Z,85.48
2022-10-22T14:51:21.425Z,85.38
2022-10-22T14:52:21.583Z,85.88
2022-10-22T14:53:21.927Z,86.18
2022-10-22T14:54:22.078Z,86.29
2022-10-22T14:55:22.269Z,86.33
2022-10-22T14:56:22.450Z,86.43
2022-10-22T14:57:22.633Z,86.73
2022-10-22T14:58:22.825Z,86.73
2022-10-22T14:59:22.975Z,86.83
2022-10-22T15:00:23.156Z,87.03
2022-10-22T15:01:29.343Z,87.23
2022-10-22T15:02:23.511Z,87.43
2022-10-22T15:03:23.743Z,87.54
2022-10-22T15:04:23.876Z,87.48
2022-10-22T15:05:24.063Z,88.99
2022-10-22T15:06:24.276Z,89.88
2022-10-22T15:07:24.471Z,91.24
2022-10-22T15:08:24.683Z,92.69
2022-10-22T15:09:24.834Z,93.81
2022-10-22T15:10:25.011Z,94.51
2022-10-22T15:11:25.774Z,95.67
2022-10-22T15:12:25.382Z,96.08
2022-10-22T15:13:25.586Z,96.48
2022-10-22T15:14:25.763Z,97.14
2022-10-22T15:15:30.489Z,97.44
2022-10-22T15:16:26.137Z,97.34
2022-10-22T15:17:26.313Z,97.34
2022-10-22T15:18:26.507Z,97.14
2022-10-22T15:19:26.679Z,97.24
2022-10-22T15:20:26.854Z,97.34
2022-10-22T15:21:27.021Z,97.03
2022-10-22T15:22:27.219Z,97.34
2022-10-22T15:23:27.411Z,97.03
2022-10-22T15:24:27.580Z,97.34
2022-10-22T15:25:27.753Z,97.34
2022-10-22T15:26:27.922Z,96.83
2022-10-22T15:27:28.122Z,96.83
2022-10-22T15:28:28.306Z,97.03
2022-10-22T15:29:28.471Z,96.93
2022-10-22T15:30:28.653Z,97.24
2022-10-22T15:31:28.830Z,97.44
2022-10-22T15:32:28.995Z,97.34
2022-10-22T15:33:29.170Z,97.34
2022-10-22T15:34:29.325Z,97.39
2022-10-22T15:35:29.529Z,97.19
2022-10-22T15:36:29.707Z,97.24
2022-10-22T15:37:29.900Z,97.54
2022-10-22T15:39:30.384Z,96.98
2022-10-22T15:40:30.555Z,97.19
2022-10-22T15:41:30.848Z,97.34
2022-10-22T15:42:31.162Z,97.24
2022-10-22T15:43:31.345Z,97.44
2022-10-22T15:44:31.531Z,97.64
2022-10-22T15:45:31.830Z,97.64
2022-10-22T15:46:34.685Z,97.64
2022-10-22T15:47:32.301Z,97.69
2022-10-22T15:48:32.627Z,97.74
2022-10-22T15:49:32.902Z,97.94
2022-10-22T15:50:33.228Z,98.05
2022-10-22T15:51:33.507Z,98.05
2022-10-22T15:52:33.797Z,98.05
2022-10-22T15:53:33.999Z,98.25
2022-10-22T15:54:34.180Z,98.14
2022-10-22T15:55:34.476Z,98.05
2022-10-22T15:56:34.785Z,98.14
2022-10-22T15:57:34.975Z,98.14
2022-10-22T15:58:35.278Z,98.45
2022-10-22T15:59:35.555Z,98.45
2022-10-22T16:00:35.846Z,98.55
2022-10-22T16:01:36.043Z,98.75
2022-10-22T16:02:36.340Z,98.75
2022-10-22T16:03:36.553Z,98.75
2022-10-22T16:04:36.715Z,98.65
2022-10-22T16:05:36.927Z,98.75
2022-10-22T16:06:37.047Z,98.55
2022-10-22T16:07:37.335Z,98.55
2022-10-22T16:08:37.677Z,98.55
2022-10-22T16:09:37.788Z,98.75
2022-10-22T16:10:37.971Z,98.55
2022-10-22T16:11:38.139Z,98.35
2022-10-22T16:12:38.420Z,98.14
2022-10-22T16:13:38.495Z,98.05
2022-10-22T16:14:38.658Z,97.85
2022-10-22T16:15:38.827Z,97.94
2022-10-22T16:16:38.997Z,97.94
2022-10-22T16:17:39.165Z,98.05
2022-10-22T16:18:39.351Z,98.14
2022-10-22T16:19:39.505Z,98.05
2022-10-22T16:20:39.673Z,97.94
2022-10-22T16:21:39.836Z,97.94
2022-10-22T16:22:40.454Z,97.94
2022-10-22T16:23:40.465Z,97.85
2022-10-22T16:24:40.608Z,97.94
2022-10-22T16:25:40.760Z,97.94
2022-10-22T16:26:41.057Z,97.85
2022-10-22T16:27:41.227Z,97.94
2022-10-22T16:28:41.415Z,97.94
2022-10-22T16:29:41.710Z,97.85
2022-10-22T16:30:41.865Z,97.85
2022-10-22T16:31:42.143Z,97.85
2022-10-22T16:32:42.622Z,97.94
2022-10-22T16:33:47.786Z,98.05
2022-10-22T16:34:42.808Z,97.94
2022-10-22T16:35:43.081Z,97.94
2022-10-22T16:36:43.285Z,97.44
2022-10-22T16:37:43.980Z,97.44
2022-10-22T16:38:43.743Z,97.34
2022-10-22T16:39:43.891Z,97.34
2022-10-22T16:40:44.268Z,97.34
2022-10-22T16:41:44.629Z,97.34
2022-10-22T16:42:44.993Z,97.54
2022-10-22T16:43:45.393Z,97.54
2022-10-22T16:44:45.729Z,97.74
2022-10-22T16:45:46.090Z,97.64
2022-10-22T16:46:46.462Z,97.64
2022-10-22T16:47:46.835Z,97.64
2022-10-22T16:48:47.219Z,97.74
2022-10-22T16:49:47.571Z,97.74
2022-10-22T16:50:47.949Z,97.74
2022-10-22T16:51:48.281Z,97.74
2022-10-22T16:52:48.670Z,97.54
2022-10-22T16:53:49.021Z,97.74
2022-10-22T16:54:49.365Z,97.85
2022-10-22T16:55:49.731Z,97.99
2022-10-22T16:56:50.110Z,98.19
2022-10-22T16:57:51.312Z,98.19
2022-10-22T16:58:50.854Z,98.29
2022-10-22T16:59:51.188Z,98.29
2022-10-22T17:00:51.570Z,98.19
2022-10-22T17:01:51.914Z,98.29
2022-10-22T17:02:52.251Z,98.09
2022-10-22T17:03:53.306Z,97.99
2022-10-22T17:04:52.930Z,97.99
2022-10-22T17:05:53.320Z,97.79
2022-10-22T17:06:53.674Z,97.79
2022-10-22T17:07:54.028Z,97.58
2022-10-22T17:08:54.477Z,97.69
2022-10-22T17:09:54.786Z,97.79
2022-10-22T17:10:55.169Z,97.79
2022-10-22T17:11:55.539Z,97.79
2022-10-22T17:12:55.932Z,97.79
2022-10-22T17:13:56.289Z,97.89
2022-10-22T17:14:56.630Z,97.79
2022-10-22T17:15:57.003Z,97.89
2022-10-22T17:16:57.393Z,97.99
2022-10-22T17:17:57.723Z,97.99
2022-10-22T17:18:58.078Z,97.99
2022-10-22T17:19:58.422Z,98.19
2022-10-22T17:20:58.800Z,98.19
2022-10-22T17:21:59.155Z,98.29
2022-10-22T17:22:59.512Z,98.39
2022-10-22T17:23:59.894Z,98.60
2022-10-22T17:25:00.236Z,98.60
2022-10-22T17:26:00.608Z,98.70
2022-10-22T17:27:01.027Z,98.70
2022-10-22T17:28:01.350Z,98.70